sensor_id;sensor_type;location;lat;lon;timestamp;pressure;altitude;pressure_sealevel;temperature;humidity
84821;BME280;75463;50.988;11.332;2024-03-02T00:02:06;97776.00;;;3.24;91.52
84821;BME280;75463;50.988;11.332;2024-03-02T00:04:31;97765.84;;;3.31;92.19
84821;BME280;75463;50.988;11.332;2024-03-02T00:06:57;97772.19;;;3.35;92.08
84821;BME280;75463;50.988;11.332;2024-03-02T00:09:22;97769.19;;;3.41;92.21
84821;BME280;75463;50.988;11.332;2024-03-02T00:11:47;97771.00;;;3.46;91.68
84821;BME280;75463;50.988;11.332;2024-03-02T00:14:13;97772.03;;;3.49;91.89
84821;BME280;75463;50.988;11.332;2024-03-02T00:16:38;97770.44;;;3.48;91.94
84821;BME280;75463;50.988;11.332;2024-03-02T00:19:05;97763.53;;;3.47;91.48
84821;BME280;75463;50.988;11.332;2024-03-02T00:21:32;97760.63;;;3.49;92.17
84821;BME280;75463;50.988;11.332;2024-03-02T00:23:58;97775.38;;;3.60;91.70
84821;BME280;75463;50.988;11.332;2024-03-02T00:26:24;97765.03;;;3.58;91.82
84821;BME280;75463;50.988;11.332;2024-03-02T00:28:49;97760.22;;;3.60;91.77
84821;BME280;75463;50.988;11.332;2024-03-02T00:31:15;97765.00;;;3.63;91.29
84821;BME280;75463;50.988;11.332;2024-03-02T00:33:45;97759.69;;;3.63;91.78
84821;BME280;75463;50.988;11.332;2024-03-02T00:36:12;97758.59;;;3.64;90.84
84821;BME280;75463;50.988;11.332;2024-03-02T00:38:47;97758.84;;;3.68;90.86
84821;BME280;75463;50.988;11.332;2024-03-02T00:41:31;97755.91;;;3.69;90.52
84821;BME280;75463;50.988;11.332;2024-03-02T00:44:04;97751.06;;;3.71;91.16
84821;BME280;75463;50.988;11.332;2024-03-02T00:46:37;97754.75;;;3.75;90.89
84821;BME280;75463;50.988;11.332;2024-03-02T00:49:25;97751.28;;;3.75;90.62
84821;BME280;75463;50.988;11.332;2024-03-02T00:51:52;97752.84;;;3.81;91.32
84821;BME280;75463;50.988;11.332;2024-03-02T00:54:27;97755.78;;;3.79;91.70
84821;BME280;75463;50.988;11.332;2024-03-02T00:56:54;97759.50;;;3.78;91.58
84821;BME280;75463;50.988;11.332;2024-03-02T00:59:21;97761.59;;;3.81;90.64
84821;BME280;75463;50.988;11.332;2024-03-02T01:01:48;97759.16;;;3.85;90.96
84821;BME280;75463;50.988;11.332;2024-03-02T01:04:14;97763.97;;;3.83;91.37
84821;BME280;75463;50.988;11.332;2024-03-02T01:06:40;97763.41;;;3.86;91.54
84821;BME280;75463;50.988;11.332;2024-03-02T01:09:06;97769.50;;;3.86;90.20
84821;BME280;75463;50.988;11.332;2024-03-02T01:11:31;97760.75;;;3.86;91.19
84821;BME280;75463;50.988;11.332;2024-03-02T01:13:56;97761.81;;;3.85;90.92
84821;BME280;75463;50.988;11.332;2024-03-02T01:16:21;97762.34;;;3.87;91.15
84821;BME280;75463;50.988;11.332;2024-03-02T01:18:47;97765.22;;;3.90;91.17
84821;BME280;75463;50.988;11.332;2024-03-02T01:21:12;97761.97;;;3.93;90.80
84821;BME280;75463;50.988;11.332;2024-03-02T01:23:38;97767.53;;;3.97;90.03
84821;BME280;75463;50.988;11.332;2024-03-02T01:26:03;97759.00;;;3.99;90.85
84821;BME280;75463;50.988;11.332;2024-03-02T01:28:29;97754.97;;;4.02;90.68
84821;BME280;75463;50.988;11.332;2024-03-02T01:30:54;97759.16;;;4.08;90.10
84821;BME280;75463;50.988;11.332;2024-03-02T01:33:20;97756.22;;;4.09;90.65
84821;BME280;75463;50.988;11.332;2024-03-02T01:35:46;97764.41;;;4.13;90.31
84821;BME280;75463;50.988;11.332;2024-03-02T01:38:11;97759.59;;;4.15;90.15
84821;BME280;75463;50.988;11.332;2024-03-02T01:40:37;97757.94;;;4.19;90.10
84821;BME280;75463;50.988;11.332;2024-03-02T01:43:06;97769.88;;;4.21;89.13
84821;BME280;75463;50.988;11.332;2024-03-02T01:45:32;97767.44;;;4.25;89.63
84821;BME280;75463;50.988;11.332;2024-03-02T01:47:58;97755.66;;;4.31;89.74
84821;BME280;75463;50.988;11.332;2024-03-02T01:50:31;97762.81;;;4.35;89.22
84821;BME280;75463;50.988;11.332;2024-03-02T01:52:57;97761.41;;;4.38;88.34
84821;BME280;75463;50.988;11.332;2024-03-02T01:55:23;97759.78;;;4.42;87.94
84821;BME280;75463;50.988;11.332;2024-03-02T01:57:49;97768.81;;;4.41;88.28
84821;BME280;75463;50.988;11.332;2024-03-02T02:00:16;97754.44;;;4.42;88.23
84821;BME280;75463;50.988;11.332;2024-03-02T02:02:42;97761.13;;;4.39;88.41
84821;BME280;75463;50.988;11.332;2024-03-02T02:05:07;97756.63;;;4.40;88.22
84821;BME280;75463;50.988;11.332;2024-03-02T02:07:33;97752.84;;;4.41;88.21
84821;BME280;75463;50.988;11.332;2024-03-02T02:10:00;97759.00;;;4.41;88.19
84821;BME280;75463;50.988;11.332;2024-03-02T02:12:26;97751.16;;;4.49;87.71
84821;BME280;75463;50.988;11.332;2024-03-02T02:14:51;97771.88;;;4.52;88.19
84821;BME280;75463;50.988;11.332;2024-03-02T02:17:17;97764.28;;;4.59;87.63
84821;BME280;75463;50.988;11.332;2024-03-02T02:19:42;97760.28;;;4.62;87.71
84821;BME280;75463;50.988;11.332;2024-03-02T02:22:08;97758.91;;;4.64;86.97
84821;BME280;75463;50.988;11.332;2024-03-02T02:24:34;97757.31;;;4.63;86.99
84821;BME280;75463;50.988;11.332;2024-03-02T02:26:59;97759.56;;;4.75;87.14
84821;BME280;75463;50.988;11.332;2024-03-02T02:29:24;97760.34;;;4.75;87.47
84821;BME280;75463;50.988;11.332;2024-03-02T02:31:49;97766.81;;;4.69;87.32
84821;BME280;75463;50.988;11.332;2024-03-02T02:34:15;97761.91;;;4.76;87.68
84821;BME280;75463;50.988;11.332;2024-03-02T02:36:41;97761.91;;;4.76;88.06
84821;BME280;75463;50.988;11.332;2024-03-02T02:39:10;97767.81;;;4.73;88.56
84821;BME280;75463;50.988;11.332;2024-03-02T02:41:37;97777.13;;;4.76;88.31
84821;BME280;75463;50.988;11.332;2024-03-02T02:44:02;97776.31;;;4.75;88.81
84821;BME280;75463;50.988;11.332;2024-03-02T02:46:27;97770.44;;;4.78;87.82
84821;BME280;75463;50.988;11.332;2024-03-02T02:48:53;97771.78;;;4.76;88.42
84821;BME280;75463;50.988;11.332;2024-03-02T02:51:19;97774.50;;;4.71;90.20
84821;BME280;75463;50.988;11.332;2024-03-02T02:53:44;97773.25;;;4.68;90.36
84821;BME280;75463;50.988;11.332;2024-03-02T02:56:09;97770.13;;;4.61;90.73
84821;BME280;75463;50.988;11.332;2024-03-02T02:58:35;97777.41;;;4.56;90.82
84821;BME280;75463;50.988;11.332;2024-03-02T03:01:00;97771.00;;;4.57;91.25
84821;BME280;75463;50.988;11.332;2024-03-02T03:03:26;97781.81;;;4.65;90.76
84821;BME280;75463;50.988;11.332;2024-03-02T03:05:51;97779.53;;;4.72;90.22
84821;BME280;75463;50.988;11.332;2024-03-02T03:08:16;97786.59;;;4.63;91.38
84821;BME280;75463;50.988;11.332;2024-03-02T03:10:42;97779.63;;;4.67;91.37
84821;BME280;75463;50.988;11.332;2024-03-02T03:13:07;97780.06;;;4.74;91.18
84821;BME280;75463;50.988;11.332;2024-03-02T03:15:34;97779.91;;;4.66;91.54
84821;BME280;75463;50.988;11.332;2024-03-02T03:18:01;97791.34;;;4.66;91.56
84821;BME280;75463;50.988;11.332;2024-03-02T03:20:28;97782.59;;;4.66;91.96
84821;BME280;75463;50.988;11.332;2024-03-02T03:22:54;97783.06;;;4.68;91.71
84821;BME280;75463;50.988;11.332;2024-03-02T03:25:19;97784.47;;;4.65;92.41
84821;BME280;75463;50.988;11.332;2024-03-02T03:27:44;97782.28;;;4.67;91.96
84821;BME280;75463;50.988;11.332;2024-03-02T03:30:11;97776.09;;;4.72;92.33
84821;BME280;75463;50.988;11.332;2024-03-02T03:32:36;97772.56;;;4.76;92.11
84821;BME280;75463;50.988;11.332;2024-03-02T03:35:02;97776.00;;;4.77;92.06
84821;BME280;75463;50.988;11.332;2024-03-02T03:37:28;97768.31;;;4.75;92.49
84821;BME280;75463;50.988;11.332;2024-03-02T03:39:57;97762.22;;;4.75;92.42
84821;BME280;75463;50.988;11.332;2024-03-02T03:42:23;97765.94;;;4.74;92.20
84821;BME280;75463;50.988;11.332;2024-03-02T03:44:48;97761.16;;;4.76;92.12
84821;BME280;75463;50.988;11.332;2024-03-02T03:47:13;97766.66;;;4.79;92.31
84821;BME280;75463;50.988;11.332;2024-03-02T03:49:38;97760.34;;;4.75;91.94
84821;BME280;75463;50.988;11.332;2024-03-02T03:52:04;97758.78;;;4.74;92.47
84821;BME280;75463;50.988;11.332;2024-03-02T03:54:29;97766.25;;;4.72;92.16
84821;BME280;75463;50.988;11.332;2024-03-02T03:56:54;97755.00;;;4.75;92.49
84821;BME280;75463;50.988;11.332;2024-03-02T03:59:21;97757.66;;;4.75;92.91
84821;BME280;75463;50.988;11.332;2024-03-02T04:01:46;97758.53;;;4.71;93.40
84821;BME280;75463;50.988;11.332;2024-03-02T04:04:11;97753.44;;;4.74;92.58
84821;BME280;75463;50.988;11.332;2024-03-02T04:06:37;97750.19;;;4.77;92.31
84821;BME280;75463;50.988;11.332;2024-03-02T04:09:02;97744.31;;;4.80;92.69
84821;BME280;75463;50.988;11.332;2024-03-02T04:11:29;97739.47;;;4.82;92.84
84821;BME280;75463;50.988;11.332;2024-03-02T04:13:54;97747.38;;;4.87;92.39
84821;BME280;75463;50.988;11.332;2024-03-02T04:16:19;97752.13;;;4.90;93.19
84821;BME280;75463;50.988;11.332;2024-03-02T04:18:45;97757.31;;;5.00;92.86
84821;BME280;75463;50.988;11.332;2024-03-02T04:21:10;97757.88;;;4.97;92.48
84821;BME280;75463;50.988;11.332;2024-03-02T04:23:36;97752.56;;;4.97;92.83
84821;BME280;75463;50.988;11.332;2024-03-02T04:26:01;97751.47;;;4.98;92.45
84821;BME280;75463;50.988;11.332;2024-03-02T04:28:26;97757.31;;;5.00;92.78
84821;BME280;75463;50.988;11.332;2024-03-02T04:30:52;97755.13;;;5.02;92.21
84821;BME280;75463;50.988;11.332;2024-03-02T04:33:17;97758.56;;;5.02;92.91
84821;BME280;75463;50.988;11.332;2024-03-02T04:35:42;97765.88;;;4.97;93.19
84821;BME280;75463;50.988;11.332;2024-03-02T04:38:08;97763.31;;;5.05;92.75
84821;BME280;75463;50.988;11.332;2024-03-02T04:40:33;97761.47;;;5.06;92.14
84821;BME280;75463;50.988;11.332;2024-03-02T04:42:58;97769.94;;;5.08;92.02
84821;BME280;75463;50.988;11.332;2024-03-02T04:45:27;97766.69;;;5.11;92.06
84821;BME280;75463;50.988;11.332;2024-03-02T04:47:53;97770.25;;;5.06;92.13
84821;BME280;75463;50.988;11.332;2024-03-02T04:50:18;97780.59;;;5.08;92.06
84821;BME280;75463;50.988;11.332;2024-03-02T04:52:44;97779.31;;;5.05;92.22
84821;BME280;75463;50.988;11.332;2024-03-02T04:55:09;97775.84;;;5.05;92.04
84821;BME280;75463;50.988;11.332;2024-03-02T04:57:35;97787.53;;;5.09;91.89
84821;BME280;75463;50.988;11.332;2024-03-02T05:00:00;97779.53;;;5.09;92.89
84821;BME280;75463;50.988;11.332;2024-03-02T05:02:26;97779.72;;;5.12;92.54
84821;BME280;75463;50.988;11.332;2024-03-02T05:04:51;97776.28;;;5.12;92.23
84821;BME280;75463;50.988;11.332;2024-03-02T05:07:16;97780.53;;;5.13;92.67
84821;BME280;75463;50.988;11.332;2024-03-02T05:09:41;97774.97;;;5.09;92.61
84821;BME280;75463;50.988;11.332;2024-03-02T05:12:07;97786.78;;;5.22;92.85
84821;BME280;75463;50.988;11.332;2024-03-02T05:14:48;97776.91;;;5.22;92.85
84821;BME280;75463;50.988;11.332;2024-03-02T05:17:13;97777.47;;;5.19;92.94
84821;BME280;75463;50.988;11.332;2024-03-02T05:19:38;97787.38;;;5.19;92.58
84821;BME280;75463;50.988;11.332;2024-03-02T05:22:04;97774.47;;;5.26;93.25
84821;BME280;75463;50.988;11.332;2024-03-02T05:27:07;97787.66;;;5.17;92.66
84821;BME280;75463;50.988;11.332;2024-03-02T05:29:32;97786.66;;;5.13;92.76
84821;BME280;75463;50.988;11.332;2024-03-02T05:31:58;97777.59;;;5.14;92.57
84821;BME280;75463;50.988;11.332;2024-03-02T05:34:23;97784.28;;;5.12;93.30
84821;BME280;75463;50.988;11.332;2024-03-02T05:36:48;97784.28;;;5.12;93.05
84821;BME280;75463;50.988;11.332;2024-03-02T05:39:14;97785.56;;;5.14;93.40
84821;BME280;75463;50.988;11.332;2024-03-02T05:41:39;97793.69;;;5.23;93.19
84821;BME280;75463;50.988;11.332;2024-03-02T05:44:04;97787.78;;;5.26;93.04
84821;BME280;75463;50.988;11.332;2024-03-02T05:46:30;97793.19;;;5.21;93.16
84821;BME280;75463;50.988;11.332;2024-03-02T05:48:55;97791.28;;;5.21;93.97
84821;BME280;75463;50.988;11.332;2024-03-02T05:51:21;97781.06;;;5.28;93.64
84821;BME280;75463;50.988;11.332;2024-03-02T05:53:46;97777.03;;;5.31;93.73
84821;BME280;75463;50.988;11.332;2024-03-02T05:56:11;97788.00;;;5.43;93.37
84821;BME280;75463;50.988;11.332;2024-03-02T05:58:37;97788.44;;;5.49;93.41
84821;BME280;75463;50.988;11.332;2024-03-02T06:01:23;97785.16;;;5.52;93.16
84821;BME280;75463;50.988;11.332;2024-03-02T06:03:54;97772.84;;;5.56;92.98
84821;BME280;75463;50.988;11.332;2024-03-02T06:06:19;97789.44;;;5.53;92.56
84821;BME280;75463;50.988;11.332;2024-03-02T06:08:46;97792.38;;;5.52;92.32
84821;BME280;75463;50.988;11.332;2024-03-02T06:11:11;97782.50;;;5.52;93.24
84821;BME280;75463;50.988;11.332;2024-03-02T06:13:36;97777.41;;;5.56;93.39
84821;BME280;75463;50.988;11.332;2024-03-02T06:16:02;97790.91;;;5.59;93.30
84821;BME280;75463;50.988;11.332;2024-03-02T06:18:27;97787.38;;;5.64;93.37
84821;BME280;75463;50.988;11.332;2024-03-02T06:20:53;97790.16;;;5.72;92.87
84821;BME280;75463;50.988;11.332;2024-03-02T06:23:18;97788.50;;;5.76;92.82
84821;BME280;75463;50.988;11.332;2024-03-02T06:25:43;97791.38;;;5.80;92.79
84821;BME280;75463;50.988;11.332;2024-03-02T06:28:09;97790.06;;;5.77;93.30
84821;BME280;75463;50.988;11.332;2024-03-02T06:30:34;97790.28;;;5.81;92.85
84821;BME280;75463;50.988;11.332;2024-03-02T06:33:00;97789.41;;;5.85;93.32
84821;BME280;75463;50.988;11.332;2024-03-02T06:35:25;97783.97;;;5.90;93.26
84821;BME280;75463;50.988;11.332;2024-03-02T06:37:51;97794.63;;;5.90;93.25
84821;BME280;75463;50.988;11.332;2024-03-02T06:40:16;97800.19;;;5.94;92.87
84821;BME280;75463;50.988;11.332;2024-03-02T06:42:42;97788.94;;;5.97;92.64
84821;BME280;75463;50.988;11.332;2024-03-02T06:45:07;97796.03;;;6.01;92.45
84821;BME280;75463;50.988;11.332;2024-03-02T06:47:33;97795.44;;;6.04;92.74
84821;BME280;75463;50.988;11.332;2024-03-02T06:49:58;97795.16;;;6.05;92.33
84821;BME280;75463;50.988;11.332;2024-03-02T06:52:24;97800.69;;;6.09;92.57
84821;BME280;75463;50.988;11.332;2024-03-02T06:54:49;97798.59;;;6.06;92.65
84821;BME280;75463;50.988;11.332;2024-03-02T06:57:14;97794.25;;;6.10;92.70
84821;BME280;75463;50.988;11.332;2024-03-02T06:59:42;97800.09;;;6.12;92.45
84821;BME280;75463;50.988;11.332;2024-03-02T07:02:07;97805.31;;;6.17;92.58
84821;BME280;75463;50.988;11.332;2024-03-02T07:04:34;97815.31;;;6.25;92.55
84821;BME280;75463;50.988;11.332;2024-03-02T07:06:59;97817.00;;;6.34;92.22
84821;BME280;75463;50.988;11.332;2024-03-02T07:09:24;97804.22;;;6.45;91.84
84821;BME280;75463;50.988;11.332;2024-03-02T07:11:51;97811.81;;;6.64;91.43
84821;BME280;75463;50.988;11.332;2024-03-02T07:14:16;97811.25;;;6.89;91.40
84821;BME280;75463;50.988;11.332;2024-03-02T07:16:41;97805.53;;;7.17;90.47
84821;BME280;75463;50.988;11.332;2024-03-02T07:19:08;97815.66;;;7.50;89.03
84821;BME280;75463;50.988;11.332;2024-03-02T07:21:34;97817.06;;;7.70;89.03
84821;BME280;75463;50.988;11.332;2024-03-02T07:23:59;97816.06;;;7.88;88.24
84821;BME280;75463;50.988;11.332;2024-03-02T07:26:25;97818.00;;;8.26;88.01
84821;BME280;75463;50.988;11.332;2024-03-02T07:28:51;97818.78;;;8.98;85.37
84821;BME280;75463;50.988;11.332;2024-03-02T07:31:16;97825.19;;;9.90;83.58
84821;BME280;75463;50.988;11.332;2024-03-02T07:33:45;97818.34;;;10.75;78.78
84821;BME280;75463;50.988;11.332;2024-03-02T07:36:12;97819.66;;;11.59;77.93
84821;BME280;75463;50.988;11.332;2024-03-02T07:38:37;97825.09;;;12.27;75.21
84821;BME280;75463;50.988;11.332;2024-03-02T07:41:03;97815.81;;;12.48;73.14
84821;BME280;75463;50.988;11.332;2024-03-02T07:43:29;97811.84;;;13.05;68.55
84821;BME280;75463;50.988;11.332;2024-03-02T07:45:56;97820.50;;;13.49;69.16
84821;BME280;75463;50.988;11.332;2024-03-02T07:48:22;97823.53;;;13.75;68.06
84821;BME280;75463;50.988;11.332;2024-03-02T07:50:47;97824.81;;;13.93;66.45
84821;BME280;75463;50.988;11.332;2024-03-02T07:53:12;97830.84;;;14.02;69.03
84821;BME280;75463;50.988;11.332;2024-03-02T07:55:39;97833.00;;;14.24;65.20
84821;BME280;75463;50.988;11.332;2024-03-02T07:58:06;97834.41;;;14.18;71.73
84821;BME280;75463;50.988;11.332;2024-03-02T08:00:31;97838.34;;;13.27;67.82
84821;BME280;75463;50.988;11.332;2024-03-02T08:02:57;97839.41;;;12.87;71.00
84821;BME280;75463;50.988;11.332;2024-03-02T08:05:22;97837.25;;;12.56;71.88
84821;BME280;75463;50.988;11.332;2024-03-02T08:07:48;97844.22;;;12.46;74.56
84821;BME280;75463;50.988;11.332;2024-03-02T08:10:17;97834.81;;;12.75;71.17
84821;BME280;75463;50.988;11.332;2024-03-02T08:12:43;97837.78;;;13.33;67.28
84821;BME280;75463;50.988;11.332;2024-03-02T08:15:08;97838.09;;;13.71;66.56
84821;BME280;75463;50.988;11.332;2024-03-02T08:17:33;97834.75;;;13.89;64.72
84821;BME280;75463;50.988;11.332;2024-03-02T08:19:59;97832.94;;;13.93;65.12
84821;BME280;75463;50.988;11.332;2024-03-02T08:22:24;97842.22;;;13.80;65.44
84821;BME280;75463;50.988;11.332;2024-03-02T08:24:53;97839.31;;;14.28;66.79
84821;BME280;75463;50.988;11.332;2024-03-02T08:27:19;97834.28;;;15.06;62.18
84821;BME280;75463;50.988;11.332;2024-03-02T08:29:44;97834.44;;;15.85;62.86
84821;BME280;75463;50.988;11.332;2024-03-02T08:32:10;97844.16;;;15.67;60.12
84821;BME280;75463;50.988;11.332;2024-03-02T08:34:35;97838.22;;;16.41;56.58
84821;BME280;75463;50.988;11.332;2024-03-02T08:37:01;97837.09;;;16.42;55.57
84821;BME280;75463;50.988;11.332;2024-03-02T08:39:27;97832.63;;;16.52;54.92
84821;BME280;75463;50.988;11.332;2024-03-02T08:41:53;97834.84;;;16.47;57.53
84821;BME280;75463;50.988;11.332;2024-03-02T08:44:18;97837.81;;;16.39;54.92
84821;BME280;75463;50.988;11.332;2024-03-02T08:46:44;97838.16;;;16.18;56.87
84821;BME280;75463;50.988;11.332;2024-03-02T08:49:10;97829.06;;;14.98;57.45
84821;BME280;75463;50.988;11.332;2024-03-02T08:51:35;97843.72;;;14.82;56.68
84821;BME280;75463;50.988;11.332;2024-03-02T08:54:01;97835.34;;;14.87;57.95
84821;BME280;75463;50.988;11.332;2024-03-02T08:56:26;97840.13;;;14.93;57.27
84821;BME280;75463;50.988;11.332;2024-03-02T08:58:52;97855.38;;;14.82;57.47
84821;BME280;75463;50.988;11.332;2024-03-02T09:01:18;97841.56;;;15.37;55.82
84821;BME280;75463;50.988;11.332;2024-03-02T09:03:44;97857.53;;;14.61;57.00
84821;BME280;75463;50.988;11.332;2024-03-02T09:06:10;97849.97;;;15.51;55.35
84821;BME280;75463;50.988;11.332;2024-03-02T09:08:36;97853.66;;;15.24;55.12
84821;BME280;75463;50.988;11.332;2024-03-02T09:11:02;97847.41;;;15.39;55.11
84821;BME280;75463;50.988;11.332;2024-03-02T09:13:29;97849.97;;;15.69;54.15
84821;BME280;75463;50.988;11.332;2024-03-02T09:15:55;97850.34;;;15.49;54.49
84821;BME280;75463;50.988;11.332;2024-03-02T09:18:20;97841.22;;;14.73;54.71
84821;BME280;75463;50.988;11.332;2024-03-02T09:20:45;97851.22;;;14.11;58.32
84821;BME280;75463;50.988;11.332;2024-03-02T09:23:11;97849.81;;;14.17;58.59
84821;BME280;75463;50.988;11.332;2024-03-02T09:25:36;97840.94;;;14.17;58.21
84821;BME280;75463;50.988;11.332;2024-03-02T09:28:02;97851.59;;;13.71;59.11
84821;BME280;75463;50.988;11.332;2024-03-02T09:30:28;97848.94;;;13.20;59.82
84821;BME280;75463;50.988;11.332;2024-03-02T09:32:53;97855.00;;;13.29;59.68
84821;BME280;75463;50.988;11.332;2024-03-02T09:35:18;97855.81;;;13.56;59.25
84821;BME280;75463;50.988;11.332;2024-03-02T09:37:44;97853.28;;;13.75;58.90
84821;BME280;75463;50.988;11.332;2024-03-02T09:40:10;97839.59;;;13.56;59.40
84821;BME280;75463;50.988;11.332;2024-03-02T09:42:36;97844.66;;;13.85;58.90
84821;BME280;75463;50.988;11.332;2024-03-02T09:45:01;97853.06;;;14.23;57.03
84821;BME280;75463;50.988;11.332;2024-03-02T09:47:27;97849.41;;;14.31;56.72
84821;BME280;75463;50.988;11.332;2024-03-02T09:49:52;97848.72;;;14.34;56.84
84821;BME280;75463;50.988;11.332;2024-03-02T09:52:18;97841.50;;;15.18;53.97
84821;BME280;75463;50.988;11.332;2024-03-02T09:54:44;97844.66;;;15.54;53.14
84821;BME280;75463;50.988;11.332;2024-03-02T09:57:09;97841.63;;;15.97;52.21
84821;BME280;75463;50.988;11.332;2024-03-02T09:59:35;97832.75;;;15.77;52.98
84821;BME280;75463;50.988;11.332;2024-03-02T10:02:03;97848.28;;;15.99;52.67
84821;BME280;75463;50.988;11.332;2024-03-02T10:04:30;97852.34;;;16.27;51.80
84821;BME280;75463;50.988;11.332;2024-03-02T10:09:38;97844.44;;;15.81;52.48
84821;BME280;75463;50.988;11.332;2024-03-02T10:12:05;97854.28;;;15.02;56.02
84821;BME280;75463;50.988;11.332;2024-03-02T10:14:31;97852.66;;;14.82;55.32
84821;BME280;75463;50.988;11.332;2024-03-02T10:17:05;97851.75;;;14.17;57.37
84821;BME280;75463;50.988;11.332;2024-03-02T10:19:31;97862.00;;;13.84;57.73
84821;BME280;75463;50.988;11.332;2024-03-02T10:21:59;97871.13;;;13.52;59.31
84821;BME280;75463;50.988;11.332;2024-03-02T10:24:25;97862.69;;;13.81;58.12
84821;BME280;75463;50.988;11.332;2024-03-02T10:26:51;97864.84;;;14.15;57.47
84821;BME280;75463;50.988;11.332;2024-03-02T10:29:17;97860.91;;;14.12;56.19
84821;BME280;75463;50.988;11.332;2024-03-02T10:31:44;97853.63;;;14.44;54.56
84821;BME280;75463;50.988;11.332;2024-03-02T10:34:11;97854.81;;;14.46;54.42
84821;BME280;75463;50.988;11.332;2024-03-02T10:36:37;97849.06;;;14.48;54.14
84821;BME280;75463;50.988;11.332;2024-03-02T10:39:06;97853.00;;;14.81;53.62
84821;BME280;75463;50.988;11.332;2024-03-02T10:41:36;97849.13;;;14.97;53.29
84821;BME280;75463;50.988;11.332;2024-03-02T10:44:03;97837.72;;;14.88;53.78
84821;BME280;75463;50.988;11.332;2024-03-02T10:46:30;97847.75;;;15.37;53.47
84821;BME280;75463;50.988;11.332;2024-03-02T10:48:56;97843.69;;;15.12;53.99
84821;BME280;75463;50.988;11.332;2024-03-02T10:51:24;97844.13;;;15.14;53.66
84821;BME280;75463;50.988;11.332;2024-03-02T10:53:51;97848.50;;;15.19;53.21
84821;BME280;75463;50.988;11.332;2024-03-02T10:56:22;97851.94;;;14.85;54.10
84821;BME280;75463;50.988;11.332;2024-03-02T10:59:17;97843.66;;;14.94;54.01
84821;BME280;75463;50.988;11.332;2024-03-02T11:01:42;97844.50;;;14.98;54.14
84821;BME280;75463;50.988;11.332;2024-03-02T11:04:08;97848.72;;;14.95;53.53
84821;BME280;75463;50.988;11.332;2024-03-02T11:06:36;97842.53;;;15.13;52.22
84821;BME280;75463;50.988;11.332;2024-03-02T11:09:06;97839.69;;;15.41;52.51
84821;BME280;75463;50.988;11.332;2024-03-02T11:11:36;97839.41;;;15.11;51.74
84821;BME280;75463;50.988;11.332;2024-03-02T11:14:04;97830.19;;;15.65;49.10
84821;BME280;75463;50.988;11.332;2024-03-02T11:16:37;97841.00;;;16.03;49.09
84821;BME280;75463;50.988;11.332;2024-03-02T11:19:14;97832.00;;;15.99;49.09
84821;BME280;75463;50.988;11.332;2024-03-02T11:21:40;97826.97;;;16.39;47.99
84821;BME280;75463;50.988;11.332;2024-03-02T11:27:09;97824.41;;;16.97;46.03
84821;BME280;75463;50.988;11.332;2024-03-02T11:32:25;97823.91;;;18.02;43.85
84821;BME280;75463;50.988;11.332;2024-03-02T11:34:51;97815.25;;;19.18;42.33
84821;BME280;75463;50.988;11.332;2024-03-02T11:37:19;97819.88;;;19.11;41.38
84821;BME280;75463;50.988;11.332;2024-03-02T11:39:46;97821.78;;;19.07;41.52
84821;BME280;75463;50.988;11.332;2024-03-02T11:42:12;97814.66;;;18.92;40.79
84821;BME280;75463;50.988;11.332;2024-03-02T11:44:43;97811.28;;;18.62;40.93
84821;BME280;75463;50.988;11.332;2024-03-02T11:47:11;97803.38;;;18.97;40.18
84821;BME280;75463;50.988;11.332;2024-03-02T11:49:48;97811.03;;;18.74;40.37
84821;BME280;75463;50.988;11.332;2024-03-02T11:52:15;97805.38;;;18.54;40.69
84821;BME280;75463;50.988;11.332;2024-03-02T11:54:44;97795.38;;;18.68;41.08
84821;BME280;75463;50.988;11.332;2024-03-02T11:57:17;97800.63;;;18.07;42.25
84821;BME280;75463;50.988;11.332;2024-03-02T11:59:43;97805.53;;;17.95;42.63
84821;BME280;75463;50.988;11.332;2024-03-02T12:02:35;97814.66;;;17.44;44.02
84821;BME280;75463;50.988;11.332;2024-03-02T12:05:02;97807.94;;;16.83;45.49
84821;BME280;75463;50.988;11.332;2024-03-02T12:07:29;97809.06;;;16.82;44.22
84821;BME280;75463;50.988;11.332;2024-03-02T12:10:01;97803.09;;;16.73;43.93
84821;BME280;75463;50.988;11.332;2024-03-02T12:12:28;97800.03;;;16.52;44.80
84821;BME280;75463;50.988;11.332;2024-03-02T12:14:53;97802.28;;;16.25;46.77
84821;BME280;75463;50.988;11.332;2024-03-02T12:17:21;97783.72;;;16.08;45.66
84821;BME280;75463;50.988;11.332;2024-03-02T12:19:47;97786.53;;;15.93;45.96
84821;BME280;75463;50.988;11.332;2024-03-02T12:22:12;97787.94;;;15.64;46.43
84821;BME280;75463;50.988;11.332;2024-03-02T12:24:38;97790.06;;;15.74;47.22
84821;BME280;75463;50.988;11.332;2024-03-02T12:27:05;97779.91;;;15.15;47.11
84821;BME280;75463;50.988;11.332;2024-03-02T12:29:30;97781.50;;;15.00;47.66
84821;BME280;75463;50.988;11.332;2024-03-02T12:31:56;97779.25;;;15.02;46.98
84821;BME280;75463;50.988;11.332;2024-03-02T12:34:22;97781.75;;;15.11;47.15
84821;BME280;75463;50.988;11.332;2024-03-02T12:36:48;97777.75;;;15.05;46.23
84821;BME280;75463;50.988;11.332;2024-03-02T12:39:16;97782.69;;;14.84;45.48
84821;BME280;75463;50.988;11.332;2024-03-02T12:41:42;97784.69;;;14.87;45.46
84821;BME280;75463;50.988;11.332;2024-03-02T12:44:08;97779.06;;;14.77;47.11
84821;BME280;75463;50.988;11.332;2024-03-02T12:46:33;97768.59;;;14.75;46.55
84821;BME280;75463;50.988;11.332;2024-03-02T12:49:16;97772.00;;;14.72;45.62
84821;BME280;75463;50.988;11.332;2024-03-02T12:51:42;97765.81;;;14.91;45.52
84821;BME280;75463;50.988;11.332;2024-03-02T12:54:08;97767.00;;;14.74;46.22
84821;BME280;75463;50.988;11.332;2024-03-02T12:56:35;97769.69;;;14.90;46.68
84821;BME280;75463;50.988;11.332;2024-03-02T12:59:00;97776.69;;;14.75;47.13
84821;BME280;75463;50.988;11.332;2024-03-02T13:01:26;97761.97;;;14.92;46.86
84821;BME280;75463;50.988;11.332;2024-03-02T13:03:53;97761.16;;;15.06;47.18